sensor_id;sensor_type;location;lat;lon;timestamp;P1;durP1;ratioP1;P2;durP2;ratioP2
24229;SDS011;12362;50.004;8.006;2023-05-08T00:00:24;0.10;;;0.10;;
24229;SDS011;12362;50.004;8.006;2023-05-08T00:02:49;0.85;;;0.20;;
24229;SDS011;12362;50.004;8.006;2023-05-08T00:05:15;1.15;;;0.57;;
24229;SDS011;12362;50.004;8.006;2023-05-08T00:07:41;0.25;;;0.25;;
24229;SDS011;12362;50.004;8.006;2023-05-08T00:10:07;0.28;;;0.17;;
24229;SDS011;12362;50.004;8.006;2023-05-08T00:12:34;0.73;;;0.25;;
24229;SDS011;12362;50.004;8.006;2023-05-08T00:15:00;0.45;;;0.20;;
24229;SDS011;12362;50.004;8.006;2023-05-08T00:17:26;0.47;;;0.28;;
24229;SDS011;12362;50.004;8.006;2023-05-08T00:19:53;0.82;;;0.50;;
24229;SDS011;12362;50.004;8.006;2023-05-08T00:22:18;0.68;;;0.20;;
24229;SDS011;12362;50.004;8.006;2023-05-08T00:24:44;0.20;;;0.20;;
24229;SDS011;12362;50.004;8.006;2023-05-08T00:27:09;0.17;;;0.17;;
24229;SDS011;12362;50.004;8.006;2023-05-08T00:29:36;0.28;;;0.28;;
24229;SDS011;12362;50.004;8.006;2023-05-08T00:32:04;0.32;;;0.22;;
24229;SDS011;12362;50.004;8.006;2023-05-08T00:34:31;2.92;;;0.40;;
24229;SDS011;12362;50.004;8.006;2023-05-08T00:37:00;0.28;;;0.20;;
24229;SDS011;12362;50.004;8.006;2023-05-08T00:39:27;0.10;;;0.10;;
24229;SDS011;12362;50.004;8.006;2023-05-08T00:41:52;0.38;;;0.25;;
24229;SDS011;12362;50.004;8.006;2023-05-08T00:44:18;0.15;;;0.10;;
24229;SDS011;12362;50.004;8.006;2023-05-08T00:46:43;0.10;;;0.10;;
24229;SDS011;12362;50.004;8.006;2023-05-08T00:49:10;0.20;;;0.20;;
24229;SDS011;12362;50.004;8.006;2023-05-08T00:51:42;0.22;;;0.20;;
24229;SDS011;12362;50.004;8.006;2023-05-08T00:54:09;0.50;;;0.20;;
24229;SDS011;12362;50.004;8.006;2023-05-08T00:56:36;0.30;;;0.20;;
24229;SDS011;12362;50.004;8.006;2023-05-08T00:59:03;0.57;;;0.10;;
24229;SDS011;12362;50.004;8.006;2023-05-08T01:01:32;2.42;;;0.45;;
24229;SDS011;12362;50.004;8.006;2023-05-08T01:04:00;0.32;;;0.30;;
24229;SDS011;12362;50.004;8.006;2023-05-08T01:06:27;1.85;;;0.30;;
24229;SDS011;12362;50.004;8.006;2023-05-08T01:08:53;1.08;;;0.52;;
24229;SDS011;12362;50.004;8.006;2023-05-08T01:11:25;1.77;;;0.50;;
24229;SDS011;12362;50.004;8.006;2023-05-08T01:19:54;0.85;;;0.47;;
24229;SDS011;12362;50.004;8.006;2023-05-08T01:25:28;0.15;;;0.13;;
24229;SDS011;12362;50.004;8.006;2023-05-08T01:34:30;0.43;;;0.28;;
24229;SDS011;12362;50.004;8.006;2023-05-08T01:37:07;0.22;;;0.20;;
24229;SDS011;12362;50.004;8.006;2023-05-08T01:42:47;0.85;;;0.25;;
24229;SDS011;12362;50.004;8.006;2023-05-08T01:45:28;0.43;;;0.25;;
24229;SDS011;12362;50.004;8.006;2023-05-08T01:48:06;10.80;;;0.45;;
24229;SDS011;12362;50.004;8.006;2023-05-08T01:50:47;1.40;;;0.40;;
24229;SDS011;12362;50.004;8.006;2023-05-08T01:53:20;0.30;;;0.30;;
24229;SDS011;12362;50.004;8.006;2023-05-08T01:55:51;0.17;;;0.17;;
24229;SDS011;12362;50.004;8.006;2023-05-08T01:58:20;0.80;;;0.30;;
24229;SDS011;12362;50.004;8.006;2023-05-08T02:00:47;1.33;;;0.60;;
24229;SDS011;12362;50.004;8.006;2023-05-08T02:03:14;0.55;;;0.47;;
24229;SDS011;12362;50.004;8.006;2023-05-08T02:05:41;0.40;;;0.30;;
24229;SDS011;12362;50.004;8.006;2023-05-08T02:08:11;1.75;;;0.50;;
24229;SDS011;12362;50.004;8.006;2023-05-08T02:10:39;0.10;;;0.10;;
24229;SDS011;12362;50.004;8.006;2023-05-08T02:13:07;1.70;;;0.50;;
24229;SDS011;12362;50.004;8.006;2023-05-08T02:15:35;1.05;;;0.20;;
24229;SDS011;12362;50.004;8.006;2023-05-08T02:18:06;0.22;;;0.13;;
24229;SDS011;12362;50.004;8.006;2023-05-08T02:20:33;0.70;;;0.55;;
24229;SDS011;12362;50.004;8.006;2023-05-08T02:23:00;1.45;;;0.57;;
24229;SDS011;12362;50.004;8.006;2023-05-08T02:25:27;0.57;;;0.38;;
24229;SDS011;12362;50.004;8.006;2023-05-08T02:27:54;0.98;;;0.47;;
24229;SDS011;12362;50.004;8.006;2023-05-08T02:30:21;2.08;;;0.55;;
24229;SDS011;12362;50.004;8.006;2023-05-08T02:32:50;0.10;;;0.10;;
24229;SDS011;12362;50.004;8.006;2023-05-08T02:35:19;2.65;;;0.30;;
24229;SDS011;12362;50.004;8.006;2023-05-08T02:37:50;0.30;;;0.30;;
24229;SDS011;12362;50.004;8.006;2023-05-08T02:40:18;0.75;;;0.28;;
24229;SDS011;12362;50.004;8.006;2023-05-08T02:42:46;0.73;;;0.30;;
24229;SDS011;12362;50.004;8.006;2023-05-08T02:45:12;0.57;;;0.30;;
24229;SDS011;12362;50.004;8.006;2023-05-08T02:50:25;0.38;;;0.25;;
24229;SDS011;12362;50.004;8.006;2023-05-08T02:52:59;0.25;;;0.25;;
24229;SDS011;12362;50.004;8.006;2023-05-08T02:58:06;0.50;;;0.20;;
24229;SDS011;12362;50.004;8.006;2023-05-08T03:00:49;2.50;;;0.45;;
24229;SDS011;12362;50.004;8.006;2023-05-08T03:03:23;1.20;;;0.60;;
24229;SDS011;12362;50.004;8.006;2023-05-08T03:05:55;1.13;;;0.45;;
24229;SDS011;12362;50.004;8.006;2023-05-08T03:08:33;0.98;;;0.40;;
24229;SDS011;12362;50.004;8.006;2023-05-08T03:11:01;1.35;;;0.88;;
24229;SDS011;12362;50.004;8.006;2023-05-08T03:13:33;1.30;;;0.82;;
24229;SDS011;12362;50.004;8.006;2023-05-08T03:16:01;6.97;;;0.55;;
24229;SDS011;12362;50.004;8.006;2023-05-08T03:18:34;2.30;;;0.57;;
24229;SDS011;12362;50.004;8.006;2023-05-08T03:21:02;2.70;;;0.50;;
24229;SDS011;12362;50.004;8.006;2023-05-08T03:23:30;1.30;;;0.60;;
24229;SDS011;12362;50.004;8.006;2023-05-08T03:26:00;0.75;;;0.30;;
24229;SDS011;12362;50.004;8.006;2023-05-08T03:28:27;2.00;;;0.57;;
24229;SDS011;12362;50.004;8.006;2023-05-08T03:30:56;1.30;;;0.55;;
24229;SDS011;12362;50.004;8.006;2023-05-08T03:33:23;1.25;;;0.40;;
24229;SDS011;12362;50.004;8.006;2023-05-08T03:35:51;1.42;;;0.73;;
24229;SDS011;12362;50.004;8.006;2023-05-08T03:38:18;1.13;;;0.60;;
24229;SDS011;12362;50.004;8.006;2023-05-08T03:40:44;3.42;;;1.35;;
24229;SDS011;12362;50.004;8.006;2023-05-08T03:43:10;1.25;;;0.80;;
24229;SDS011;12362;50.004;8.006;2023-05-08T03:45:38;1.10;;;0.70;;
24229;SDS011;12362;50.004;8.006;2023-05-08T03:48:05;0.47;;;0.47;;
24229;SDS011;12362;50.004;8.006;2023-05-08T03:50:33;6.50;;;0.55;;
24229;SDS011;12362;50.004;8.006;2023-05-08T03:53:00;2.63;;;0.95;;
24229;SDS011;12362;50.004;8.006;2023-05-08T03:55:26;0.28;;;0.28;;
24229;SDS011;12362;50.004;8.006;2023-05-08T03:57:56;1.95;;;0.45;;
24229;SDS011;12362;50.004;8.006;2023-05-08T04:09:06;2.63;;;0.70;;
24229;SDS011;12362;50.004;8.006;2023-05-08T04:14:21;1.77;;;0.32;;
24229;SDS011;12362;50.004;8.006;2023-05-08T04:17:02;1.38;;;0.55;;
24229;SDS011;12362;50.004;8.006;2023-05-08T04:19:35;1.10;;;0.63;;
24229;SDS011;12362;50.004;8.006;2023-05-08T04:22:05;3.60;;;0.55;;
24229;SDS011;12362;50.004;8.006;2023-05-08T04:24:33;0.60;;;0.50;;
24229;SDS011;12362;50.004;8.006;2023-05-08T04:27:01;0.45;;;0.30;;
24229;SDS011;12362;50.004;8.006;2023-05-08T04:29:29;1.13;;;0.73;;
24229;SDS011;12362;50.004;8.006;2023-05-08T04:31:56;1.35;;;0.70;;
24229;SDS011;12362;50.004;8.006;2023-05-08T04:34:24;1.10;;;0.52;;
24229;SDS011;12362;50.004;8.006;2023-05-08T04:36:52;3.40;;;0.95;;
24229;SDS011;12362;50.004;8.006;2023-05-08T04:39:18;0.70;;;0.60;;
24229;SDS011;12362;50.004;8.006;2023-05-08T04:41:44;1.35;;;0.50;;
24229;SDS011;12362;50.004;8.006;2023-05-08T04:44:12;0.88;;;0.47;;
24229;SDS011;12362;50.004;8.006;2023-05-08T04:46:53;1.98;;;0.57;;
24229;SDS011;12362;50.004;8.006;2023-05-08T04:49:19;2.00;;;0.47;;
24229;SDS011;12362;50.004;8.006;2023-05-08T04:51:44;1.48;;;0.60;;
24229;SDS011;12362;50.004;8.006;2023-05-08T04:54:10;3.35;;;0.38;;
24229;SDS011;12362;50.004;8.006;2023-05-08T04:56:36;0.95;;;0.57;;
24229;SDS011;12362;50.004;8.006;2023-05-08T04:59:01;1.00;;;0.40;;
24229;SDS011;12362;50.004;8.006;2023-05-08T05:01:27;0.63;;;0.47;;
24229;SDS011;12362;50.004;8.006;2023-05-08T05:03:53;1.75;;;0.63;;
24229;SDS011;12362;50.004;8.006;2023-05-08T05:06:18;0.60;;;0.38;;
24229;SDS011;12362;50.004;8.006;2023-05-08T05:08:44;1.08;;;0.63;;
24229;SDS011;12362;50.004;8.006;2023-05-08T05:11:09;1.38;;;0.75;;
24229;SDS011;12362;50.004;8.006;2023-05-08T05:13:35;2.13;;;1.25;;
24229;SDS011;12362;50.004;8.006;2023-05-08T05:16:01;1.10;;;0.90;;
24229;SDS011;12362;50.004;8.006;2023-05-08T05:18:27;3.00;;;0.80;;
24229;SDS011;12362;50.004;8.006;2023-05-08T05:20:53;0.93;;;0.50;;
24229;SDS011;12362;50.004;8.006;2023-05-08T05:23:22;1.05;;;0.40;;
24229;SDS011;12362;50.004;8.006;2023-05-08T05:25:48;1.10;;;0.60;;
24229;SDS011;12362;50.004;8.006;2023-05-08T05:28:13;1.48;;;0.73;;
24229;SDS011;12362;50.004;8.006;2023-05-08T05:30:39;0.40;;;0.40;;
24229;SDS011;12362;50.004;8.006;2023-05-08T05:33:04;0.93;;;0.63;;
24229;SDS011;12362;50.004;8.006;2023-05-08T05:35:30;3.00;;;0.93;;
24229;SDS011;12362;50.004;8.006;2023-05-08T05:37:56;0.73;;;0.55;;
24229;SDS011;12362;50.004;8.006;2023-05-08T05:40:21;2.17;;;0.57;;
24229;SDS011;12362;50.004;8.006;2023-05-08T05:42:47;1.73;;;1.08;;
24229;SDS011;12362;50.004;8.006;2023-05-08T05:48:05;1.27;;;0.40;;
24229;SDS011;12362;50.004;8.006;2023-05-08T05:50:32;0.70;;;0.45;;
24229;SDS011;12362;50.004;8.006;2023-05-08T05:52:58;0.43;;;0.38;;
24229;SDS011;12362;50.004;8.006;2023-05-08T05:55:24;3.00;;;0.40;;
24229;SDS011;12362;50.004;8.006;2023-05-08T05:57:51;1.73;;;0.50;;
24229;SDS011;12362;50.004;8.006;2023-05-08T06:00:16;1.25;;;0.85;;
24229;SDS011;12362;50.004;8.006;2023-05-08T06:02:49;0.60;;;0.40;;
24229;SDS011;12362;50.004;8.006;2023-05-08T06:05:15;0.82;;;0.73;;
24229;SDS011;12362;50.004;8.006;2023-05-08T06:07:43;1.50;;;0.73;;
24229;SDS011;12362;50.004;8.006;2023-05-08T06:10:08;1.38;;;0.82;;
24229;SDS011;12362;50.004;8.006;2023-05-08T06:12:35;1.35;;;1.00;;
24229;SDS011;12362;50.004;8.006;2023-05-08T06:18:10;1.58;;;0.50;;
24229;SDS011;12362;50.004;8.006;2023-05-08T06:20:36;2.17;;;1.00;;
24229;SDS011;12362;50.004;8.006;2023-05-08T06:23:02;0.73;;;0.63;;
24229;SDS011;12362;50.004;8.006;2023-05-08T06:25:28;2.08;;;0.93;;
24229;SDS011;12362;50.004;8.006;2023-05-08T06:27:55;0.60;;;0.60;;
24229;SDS011;12362;50.004;8.006;2023-05-08T06:30:21;0.65;;;0.60;;
24229;SDS011;12362;50.004;8.006;2023-05-08T06:32:46;0.73;;;0.40;;
24229;SDS011;12362;50.004;8.006;2023-05-08T06:35:12;13.73;;;1.08;;
24229;SDS011;12362;50.004;8.006;2023-05-08T06:37:42;0.85;;;0.40;;
24229;SDS011;12362;50.004;8.006;2023-05-08T06:40:08;2.60;;;0.80;;
24229;SDS011;12362;50.004;8.006;2023-05-08T06:42:34;0.95;;;0.55;;
24229;SDS011;12362;50.004;8.006;2023-05-08T06:45:19;2.35;;;0.68;;
24229;SDS011;12362;50.004;8.006;2023-05-08T06:47:44;2.13;;;0.70;;
24229;SDS011;12362;50.004;8.006;2023-05-08T06:50:10;0.63;;;0.52;;
24229;SDS011;12362;50.004;8.006;2023-05-08T06:52:35;1.27;;;0.60;;
24229;SDS011;12362;50.004;8.006;2023-05-08T06:55:01;1.55;;;0.50;;
24229;SDS011;12362;50.004;8.006;2023-05-08T06:57:26;5.40;;;0.82;;
24229;SDS011;12362;50.004;8.006;2023-05-08T06:59:54;1.17;;;0.75;;
24229;SDS011;12362;50.004;8.006;2023-05-08T07:02:20;1.35;;;0.65;;
24229;SDS011;12362;50.004;8.006;2023-05-08T07:04:45;1.45;;;0.52;;
24229;SDS011;12362;50.004;8.006;2023-05-08T07:07:11;0.95;;;0.85;;
24229;SDS011;12362;50.004;8.006;2023-05-08T07:09:38;1.02;;;0.57;;
24229;SDS011;12362;50.004;8.006;2023-05-08T07:12:04;0.77;;;0.50;;
24229;SDS011;12362;50.004;8.006;2023-05-08T07:14:30;1.67;;;0.60;;
24229;SDS011;12362;50.004;8.006;2023-05-08T07:16:55;0.98;;;0.50;;
24229;SDS011;12362;50.004;8.006;2023-05-08T07:19:22;1.27;;;0.57;;
24229;SDS011;12362;50.004;8.006;2023-05-08T07:21:49;1.02;;;0.63;;
24229;SDS011;12362;50.004;8.006;2023-05-08T07:24:14;1.55;;;0.80;;
24229;SDS011;12362;50.004;8.006;2023-05-08T07:26:40;4.65;;;0.55;;
24229;SDS011;12362;50.004;8.006;2023-05-08T07:29:05;1.27;;;0.82;;
24229;SDS011;12362;50.004;8.006;2023-05-08T07:31:32;0.85;;;0.70;;
24229;SDS011;12362;50.004;8.006;2023-05-08T07:33:57;1.23;;;0.60;;
24229;SDS011;12362;50.004;8.006;2023-05-08T07:36:23;0.50;;;0.50;;
24229;SDS011;12362;50.004;8.006;2023-05-08T07:38:48;1.35;;;0.60;;
24229;SDS011;12362;50.004;8.006;2023-05-08T07:41:14;1.13;;;0.80;;
24229;SDS011;12362;50.004;8.006;2023-05-08T07:43:39;1.20;;;0.50;;
24229;SDS011;12362;50.004;8.006;2023-05-08T07:46:08;1.75;;;0.75;;
24229;SDS011;12362;50.004;8.006;2023-05-08T07:48:40;1.10;;;0.60;;
24229;SDS011;12362;50.004;8.006;2023-05-08T07:51:06;0.88;;;0.52;;
24229;SDS011;12362;50.004;8.006;2023-05-08T07:53:32;1.50;;;0.90;;
24229;SDS011;12362;50.004;8.006;2023-05-08T07:55:57;0.50;;;0.50;;
24229;SDS011;12362;50.004;8.006;2023-05-08T07:58:22;1.75;;;0.68;;
24229;SDS011;12362;50.004;8.006;2023-05-08T08:00:48;2.15;;;0.90;;
24229;SDS011;12362;50.004;8.006;2023-05-08T08:03:14;0.68;;;0.45;;
24229;SDS011;12362;50.004;8.006;2023-05-08T08:05:39;1.00;;;0.82;;
24229;SDS011;12362;50.004;8.006;2023-05-08T08:08:06;0.90;;;0.63;;
24229;SDS011;12362;50.004;8.006;2023-05-08T08:10:31;1.50;;;0.73;;
24229;SDS011;12362;50.004;8.006;2023-05-08T08:12:57;0.47;;;0.30;;
24229;SDS011;12362;50.004;8.006;2023-05-08T08:15:25;1.85;;;0.80;;
24229;SDS011;12362;50.004;8.006;2023-05-08T08:17:52;2.40;;;0.63;;
24229;SDS011;12362;50.004;8.006;2023-05-08T08:20:18;1.67;;;0.60;;
24229;SDS011;12362;50.004;8.006;2023-05-08T08:22:44;5.45;;;1.45;;
24229;SDS011;12362;50.004;8.006;2023-05-08T08:25:09;2.05;;;1.00;;
24229;SDS011;12362;50.004;8.006;2023-05-08T08:27:35;1.15;;;0.73;;
24229;SDS011;12362;50.004;8.006;2023-05-08T08:30:01;1.85;;;0.90;;
24229;SDS011;12362;50.004;8.006;2023-05-08T08:32:26;1.50;;;0.60;;
24229;SDS011;12362;50.004;8.006;2023-05-08T08:34:52;6.80;;;0.90;;
24229;SDS011;12362;50.004;8.006;2023-05-08T08:37:17;1.83;;;0.93;;
24229;SDS011;12362;50.004;8.006;2023-05-08T08:39:43;6.22;;;1.33;;
24229;SDS011;12362;50.004;8.006;2023-05-08T08:42:08;3.13;;;0.60;;
24229;SDS011;12362;50.004;8.006;2023-05-08T08:44:34;1.88;;;1.00;;
24229;SDS011;12362;50.004;8.006;2023-05-08T08:50:01;1.10;;;0.85;;
24229;SDS011;12362;50.004;8.006;2023-05-08T08:52:37;1.20;;;0.90;;
24229;SDS011;12362;50.004;8.006;2023-05-08T08:55:10;4.95;;;1.02;;
24229;SDS011;12362;50.004;8.006;2023-05-08T08:57:42;2.58;;;1.00;;
24229;SDS011;12362;50.004;8.006;2023-05-08T09:00:15;2.08;;;1.00;;
24229;SDS011;12362;50.004;8.006;2023-05-08T09:02:42;3.75;;;0.90;;
24229;SDS011;12362;50.004;8.006;2023-05-08T09:05:07;1.85;;;0.75;;
24229;SDS011;12362;50.004;8.006;2023-05-08T09:07:33;1.00;;;0.70;;
24229;SDS011;12362;50.004;8.006;2023-05-08T09:10:00;1.67;;;0.82;;
24229;SDS011;12362;50.004;8.006;2023-05-08T09:12:28;1.80;;;0.95;;
24229;SDS011;12362;50.004;8.006;2023-05-08T09:14:53;0.90;;;0.63;;
24229;SDS011;12362;50.004;8.006;2023-05-08T09:20:19;1.20;;;0.63;;
24229;SDS011;12362;50.004;8.006;2023-05-08T09:22:48;1.20;;;0.55;;
24229;SDS011;12362;50.004;8.006;2023-05-08T09:25:13;3.58;;;1.00;;
24229;SDS011;12362;50.004;8.006;2023-05-08T09:27:39;3.85;;;1.17;;
24229;SDS011;12362;50.004;8.006;2023-05-08T09:30:05;1.90;;;0.70;;
24229;SDS011;12362;50.004;8.006;2023-05-08T09:32:31;11.50;;;1.40;;
24229;SDS011;12362;50.004;8.006;2023-05-08T09:34:59;2.22;;;0.82;;
24229;SDS011;12362;50.004;8.006;2023-05-08T09:37:26;1.95;;;0.85;;
24229;SDS011;12362;50.004;8.006;2023-05-08T09:39:53;0.70;;;0.60;;
24229;SDS011;12362;50.004;8.006;2023-05-08T09:42:19;3.25;;;1.02;;
24229;SDS011;12362;50.004;8.006;2023-05-08T09:44:51;0.85;;;0.57;;
24229;SDS011;12362;50.004;8.006;2023-05-08T09:47:21;1.40;;;0.93;;
24229;SDS011;12362;50.004;8.006;2023-05-08T09:49:58;0.77;;;0.57;;
24229;SDS011;12362;50.004;8.006;2023-05-08T09:52:34;2.20;;;0.82;;
24229;SDS011;12362;50.004;8.006;2023-05-08T09:55:05;2.03;;;1.00;;
24229;SDS011;12362;50.004;8.006;2023-05-08T09:57:34;2.13;;;0.85;;
24229;SDS011;12362;50.004;8.006;2023-05-08T10:00:06;2.38;;;0.98;;
24229;SDS011;12362;50.004;8.006;2023-05-08T10:02:37;3.88;;;1.17;;
24229;SDS011;12362;50.004;8.006;2023-05-08T10:07:51;6.53;;;1.30;;
24229;SDS011;12362;50.004;8.006;2023-05-08T10:10:24;4.40;;;1.40;;
24229;SDS011;12362;50.004;8.006;2023-05-08T10:12:55;3.25;;;1.27;;
24229;SDS011;12362;50.004;8.006;2023-05-08T10:15:22;2.63;;;0.88;;
24229;SDS011;12362;50.004;8.006;2023-05-08T10:17:53;1.40;;;0.77;;
24229;SDS011;12362;50.004;8.006;2023-05-08T10:20:22;1.55;;;0.90;;
24229;SDS011;12362;50.004;8.006;2023-05-08T10:22:53;1.45;;;0.85;;
24229;SDS011;12362;50.004;8.006;2023-05-08T10:25:21;1.85;;;1.00;;
24229;SDS011;12362;50.004;8.006;2023-05-08T10:27:52;1.77;;;1.02;;
24229;SDS011;12362;50.004;8.006;2023-05-08T10:30:23;2.08;;;0.88;;
24229;SDS011;12362;50.004;8.006;2023-05-08T10:32:50;2.28;;;1.00;;
24229;SDS011;12362;50.004;8.006;2023-05-08T10:35:19;4.25;;;1.17;;
24229;SDS011;12362;50.004;8.006;2023-05-08T10:37:46;3.22;;;1.00;;
24229;SDS011;12362;50.004;8.006;2023-05-08T10:40:15;2.63;;;1.08;;
24229;SDS011;12362;50.004;8.006;2023-05-08T10:42:42;2.83;;;1.15;;
24229;SDS011;12362;50.004;8.006;2023-05-08T10:45:09;4.10;;;1.08;;
24229;SDS011;12362;50.004;8.006;2023-05-08T10:50:48;0.80;;;0.68;;
24229;SDS011;12362;50.004;8.006;2023-05-08T10:53:24;2.47;;;1.08;;
24229;SDS011;12362;50.004;8.006;2023-05-08T10:55:58;2.58;;;1.00;;
24229;SDS011;12362;50.004;8.006;2023-05-08T10:58:28;1.55;;;0.80;;
24229;SDS011;12362;50.004;8.006;2023-05-08T11:03:38;1.48;;;0.77;;
24229;SDS011;12362;50.004;8.006;2023-05-08T11:06:05;1.77;;;0.73;;
24229;SDS011;12362;50.004;8.006;2023-05-08T11:08:30;2.50;;;0.93;;
24229;SDS011;12362;50.004;8.006;2023-05-08T11:16:00;2.03;;;1.30;;
24229;SDS011;12362;50.004;8.006;2023-05-08T11:18:27;2.50;;;1.13;;
24229;SDS011;12362;50.004;8.006;2023-05-08T11:21:03;1.77;;;1.13;;
24229;SDS011;12362;50.004;8.006;2023-05-08T11:23:33;6.45;;;1.13;;
24229;SDS011;12362;50.004;8.006;2023-05-08T11:26:18;2.17;;;0.73;;
24229;SDS011;12362;50.004;8.006;2023-05-08T11:31:21;2.60;;;1.08;;
24229;SDS011;12362;50.004;8.006;2023-05-08T11:33:48;1.33;;;0.63;;
24229;SDS011;12362;50.004;8.006;2023-05-08T11:38:40;1.05;;;0.70;;
24229;SDS011;12362;50.004;8.006;2023-05-08T11:41:19;2.67;;;1.25;;
24229;SDS011;12362;50.004;8.006;2023-05-08T11:46:40;1.85;;;0.60;;
24229;SDS011;12362;50.004;8.006;2023-05-08T11:49:12;2.47;;;0.80;;
24229;SDS011;12362;50.004;8.006;2023-05-08T11:51:40;2.85;;;1.05;;
24229;SDS011;12362;50.004;8.006;2023-05-08T11:54:09;3.28;;;1.00;;
24229;SDS011;12362;50.004;8.006;2023-05-08T11:56:37;0.68;;;0.60;;
24229;SDS011;12362;50.004;8.006;2023-05-08T11:59:03;8.45;;;1.73;;
24229;SDS011;12362;50.004;8.006;2023-05-08T12:01:30;1.63;;;0.73;;
24229;SDS011;12362;50.004;8.006;2023-05-08T12:04:00;2.90;;;1.25;;
24229;SDS011;12362;50.004;8.006;2023-05-08T12:06:36;1.67;;;1.00;;
24229;SDS011;12362;50.004;8.006;2023-05-08T12:09:08;2.97;;;1.10;;
24229;SDS011;12362;50.004;8.006;2023-05-08T12:11:44;0.90;;;0.52;;
24229;SDS011;12362;50.004;8.006;2023-05-08T12:14:10;4.82;;;0.82;;
24229;SDS011;12362;50.004;8.006;2023-05-08T12:16:38;3.72;;;1.27;;
24229;SDS011;12362;50.004;8.006;2023-05-08T12:19:08;4.10;;;1.35;;
24229;SDS011;12362;50.004;8.006;2023-05-08T12:21:34;1.52;;;0.90;;
24229;SDS011;12362;50.004;8.006;2023-05-08T12:24:00;4.18;;;1.45;;
24229;SDS011;12362;50.004;8.006;2023-05-08T12:26:33;1.60;;;1.02;;
24229;SDS011;12362;50.004;8.006;2023-05-08T12:29:00;3.40;;;1.17;;
24229;SDS011;12362;50.004;8.006;2023-05-08T12:31:25;2.42;;;1.25;;
24229;SDS011;12362;50.004;8.006;2023-05-08T12:33:51;4.72;;;0.95;;
24229;SDS011;12362;50.004;8.006;2023-05-08T12:36:18;4.30;;;1.38;;
24229;SDS011;12362;50.004;8.006;2023-05-08T12:38:43;4.75;;;1.05;;
24229;SDS011;12362;50.004;8.006;2023-05-08T12:41:09;1.63;;;0.90;;
24229;SDS011;12362;50.004;8.006;2023-05-08T12:43:35;2.10;;;1.02;;
24229;SDS011;12362;50.004;8.006;2023-05-08T12:46:02;2.00;;;1.00;;
24229;SDS011;12362;50.004;8.006;2023-05-08T12:48:29;1.42;;;0.90;;
24229;SDS011;12362;50.004;8.006;2023-05-08T12:50:59;1.10;;;1.00;;
24229;SDS011;12362;50.004;8.006;2023-05-08T12:53:28;8.00;;;1.55;;
24229;SDS011;12362;50.004;8.006;2023-05-08T12:55:55;1.63;;;0.85;;
24229;SDS011;12362;50.004;8.006;2023-05-08T12:58:26;2.95;;;1.00;;
24229;SDS011;12362;50.004;8.006;2023-05-08T13:01:02;3.17;;;1.15;;
24229;SDS011;12362;50.004;8.006;2023-05-08T13:03:39;2.33;;;1.05;;
24229;SDS011;12362;50.004;8.006;2023-05-08T13:06:05;1.95;;;1.33;;
24229;SDS011;12362;50.004;8.006;2023-05-08T13:08:32;1.20;;;1.05;;
24229;SDS011;12362;50.004;8.006;2023-05-08T13:10:59;5.50;;;1.92;;
24229;SDS011;12362;50.004;8.006;2023-05-08T13:13:28;5.65;;;1.52;;
24229;SDS011;12362;50.004;8.006;2023-05-08T13:16:01;3.92;;;1.35;;
24229;SDS011;12362;50.004;8.006;2023-05-08T13:18:33;1.60;;;1.08;;
24229;SDS011;12362;50.004;8.006;2023-05-08T13:21:01;3.45;;;1.40;;
24229;SDS011;12362;50.004;8.006;2023-05-08T13:23:27;4.05;;;1.23;;
24229;SDS011;12362;50.004;8.006;2023-05-08T13:25:53;2.67;;;1.20;;
24229;SDS011;12362;50.004;8.006;2023-05-08T13:28:19;1.63;;;0.90;;
24229;SDS011;12362;50.004;8.006;2023-05-08T13:30:45;2.38;;;0.93;;
24229;SDS011;12362;50.004;8.006;2023-05-08T13:33:10;1.27;;;1.02;;
24229;SDS011;12362;50.004;8.006;2023-05-08T13:35:36;1.50;;;1.10;;
24229;SDS011;12362;50.004;8.006;2023-05-08T13:38:03;3.45;;;1.00;;
24229;SDS011;12362;50.004;8.006;2023-05-08T13:40:28;1.30;;;0.80;;
24229;SDS011;12362;50.004;8.006;2023-05-08T13:42:54;2.28;;;1.10;;
24229;SDS011;12362;50.004;8.006;2023-05-08T13:45:19;0.77;;;0.77;;
24229;SDS011;12362;50.004;8.006;2023-05-08T13:47:47;3.13;;;1.30;;
24229;SDS011;12362;50.004;8.006;2023-05-08T13:50:14;4.65;;;1.45;;
24229;SDS011;12362;50.004;8.006;2023-05-08T13:52:41;1.58;;;1.02;;
24229;SDS011;12362;50.004;8.006;2023-05-08T13:55:08;3.90;;;1.42;;
24229;SDS011;12362;50.004;8.006;2023-05-08T13:57:37;2.05;;;1.35;;
24229;SDS011;12362;50.004;8.006;2023-05-08T14:00:04;2.53;;;1.25;;
24229;SDS011;12362;50.004;8.006;2023-05-08T14:02:32;2.13;;;1.00;;
24229;SDS011;12362;50.004;8.006;2023-05-08T14:04:58;1.40;;;1.00;;
24229;SDS011;12362;50.004;8.006;2023-05-08T14:07:24;3.35;;;1.48;;
24229;SDS011;12362;50.004;8.006;2023-05-08T14:09:50;4.47;;;1.20;;
24229;SDS011;12362;50.004;8.006;2023-05-08T14:12:16;4.78;;;1.20;;
24229;SDS011;12362;50.004;8.006;2023-05-08T14:14:42;5.65;;;1.55;;
24229;SDS011;12362;50.004;8.006;2023-05-08T14:17:07;3.33;;;1.08;;
24229;SDS011;12362;50.004;8.006;2023-05-08T14:19:33;2.00;;;1.50;;
24229;SDS011;12362;50.004;8.006;2023-05-08T14:21:58;1.58;;;0.82;;
24229;SDS011;12362;50.004;8.006;2023-05-08T14:24:24;3.63;;;1.42;;
24229;SDS011;12362;50.004;8.006;2023-05-08T14:26:50;2.05;;;1.08;;
24229;SDS011;12362;50.004;8.006;2023-05-08T14:29:16;2.70;;;1.30;;
24229;SDS011;12362;50.004;8.006;2023-05-08T14:31:43;3.95;;;1.15;;
24229;SDS011;12362;50.004;8.006;2023-05-08T14:34:09;2.60;;;1.30;;
24229;SDS011;12362;50.004;8.006;2023-05-08T14:36:34;3.50;;;1.15;;
24229;SDS011;12362;50.004;8.006;2023-05-08T14:38:59;1.45;;;0.73;;
24229;SDS011;12362;50.004;8.006;2023-05-08T14:41:28;1.33;;;0.73;;
24229;SDS011;12362;50.004;8.006;2023-05-08T14:43:55;4.47;;;1.02;;
24229;SDS011;12362;50.004;8.006;2023-05-08T14:46:21;2.30;;;1.70;;
24229;SDS011;12362;50.004;8.006;2023-05-08T14:48:50;3.42;;;0.98;;
24229;SDS011;12362;50.004;8.006;2023-05-08T14:51:16;1.85;;;0.82;;
24229;SDS011;12362;50.004;8.006;2023-05-08T14:53:43;3.70;;;1.02;;
24229;SDS011;12362;50.004;8.006;2023-05-08T14:56:09;3.22;;;1.08;;
24229;SDS011;12362;50.004;8.006;2023-05-08T14:58:34;6.68;;;1.13;;
24229;SDS011;12362;50.004;8.006;2023-05-08T15:01:00;7.85;;;1.08;;
24229;SDS011;12362;50.004;8.006;2023-05-08T15:03:25;3.75;;;0.95;;
24229;SDS011;12362;50.004;8.006;2023-05-08T15:05:51;5.35;;;0.95;;
24229;SDS011;12362;50.004;8.006;2023-05-08T15:08:17;2.92;;;1.25;;
24229;SDS011;12362;50.004;8.006;2023-05-08T15:10:42;2.08;;;1.02;;
24229;SDS011;12362;50.004;8.006;2023-05-08T15:13:08;3.38;;;1.02;;
24229;SDS011;12362;50.004;8.006;2023-05-08T15:15:34;2.08;;;0.98;;
24229;SDS011;12362;50.004;8.006;2023-05-08T15:18:00;1.77;;;1.00;;
24229;SDS011;12362;50.004;8.006;2023-05-08T15:20:25;2.30;;;1.00;;
24229;SDS011;12362;50.004;8.006;2023-05-08T15:22:51;4.20;;;1.02;;
24229;SDS011;12362;50.004;8.006;2023-05-08T15:25:18;3.50;;;1.08;;
24229;SDS011;12362;50.004;8.006;2023-05-08T15:27:43;1.52;;;0.80;;
24229;SDS011;12362;50.004;8.006;2023-05-08T15:30:19;4.25;;;1.67;;
24229;SDS011;12362;50.004;8.006;2023-05-08T15:32:45;3.67;;;0.80;;
24229;SDS011;12362;50.004;8.006;2023-05-08T15:35:10;2.13;;;1.15;;
24229;SDS011;12362;50.004;8.006;2023-05-08T15:37:36;3.83;;;1.27;;
24229;SDS011;12362;50.004;8.006;2023-05-08T15:40:02;3.10;;;1.38;;
24229;SDS011;12362;50.004;8.006;2023-05-08T15:42:28;1.15;;;0.85;;
24229;SDS011;12362;50.004;8.006;2023-05-08T15:44:54;4.07;;;1.35;;
24229;SDS011;12362;50.004;8.006;2023-05-08T15:47:21;2.30;;;1.13;;
24229;SDS011;12362;50.004;8.006;2023-05-08T15:49:47;3.15;;;0.98;;
24229;SDS011;12362;50.004;8.006;2023-05-08T15:52:13;2.08;;;1.15;;
24229;SDS011;12362;50.004;8.006;2023-05-08T15:54:43;1.92;;;0.90;;
24229;SDS011;12362;50.004;8.006;2023-05-08T15:57:09;1.73;;;0.80;;
24229;SDS011;12362;50.004;8.006;2023-05-08T15:59:34;2.40;;;0.90;;